createdAt,value
2018-08-17T00:00:03.689Z,4.50
2018-08-17T00:02:32.054Z,6.00
2018-08-17T00:05:00.263Z,5.30
2018-08-17T00:07:28.545Z,11.03
2018-08-17T00:09:57.222Z,7.27
2018-08-17T00:12:25.589Z,7.07
2018-08-17T00:14:54.024Z,7.10
2018-08-17T00:17:22.217Z,7.70
2018-08-17T00:19:50.442Z,10.23
2018-08-17T00:22:18.702Z,6.93
2018-08-17T00:24:47.001Z,5.23
2018-08-17T00:27:15.198Z,5.40
2018-08-17T00:29:43.442Z,5.40
2018-08-17T00:32:11.845Z,5.47
2018-08-17T00:34:40.341Z,5.60
2018-08-17T00:37:09.076Z,5.30
2018-08-17T00:39:37.725Z,6.47
2018-08-17T00:42:06.859Z,9.30
2018-08-17T00:44:35.819Z,5.30
2018-08-17T00:47:04.078Z,6.07
2018-08-17T00:49:32.286Z,6.37
2018-08-17T00:52:00.485Z,5.77
2018-08-17T00:54:28.797Z,5.27
2018-08-17T00:56:57.455Z,5.60
2018-08-17T00:59:25.974Z,5.33
2018-08-17T01:01:54.169Z,4.90
2018-08-17T01:04:22.369Z,9.77
2018-08-17T01:06:50.568Z,5.10
2018-08-17T01:09:18.778Z,5.53
2018-08-17T01:11:46.985Z,5.60
2018-08-17T01:14:15.415Z,10.80
2018-08-17T01:16:43.694Z,7.87
2018-08-17T01:19:12.272Z,9.23
2018-08-17T01:21:40.668Z,5.80
2018-08-17T01:24:09.758Z,5.57
2018-08-17T01:26:38.962Z,6.10
2018-08-17T01:29:07.929Z,5.23
2018-08-17T01:31:36.631Z,5.50
2018-08-17T01:34:05.562Z,6.03
2018-08-17T01:36:33.785Z,5.50
2018-08-17T01:39:01.990Z,5.53
2018-08-17T01:41:30.193Z,5.83
2018-08-17T01:43:58.420Z,10.40
2018-08-17T01:46:26.738Z,7.20
2018-08-17T01:48:55.068Z,7.73
2018-08-17T01:51:23.273Z,6.73
2018-08-17T01:53:51.473Z,6.80
2018-08-17T01:56:19.678Z,6.30
2018-08-17T01:58:47.882Z,6.03
2018-08-17T02:01:16.093Z,6.30
2018-08-17T02:03:44.294Z,6.07
2018-08-17T02:06:12.641Z,6.20
2018-08-17T02:08:41.291Z,7.87
2018-08-17T02:11:09.792Z,5.30
2018-08-17T02:13:38.345Z,5.20
2018-08-17T02:16:07.338Z,6.20
2018-08-17T02:18:35.822Z,5.30
2018-08-17T02:21:04.098Z,5.20
2018-08-17T02:23:32.315Z,5.30
2018-08-17T02:26:00.801Z,6.73
2018-08-17T02:28:29.114Z,6.27
2018-08-17T02:30:57.413Z,6.23
2018-08-17T02:33:25.774Z,8.60
2018-08-17T02:35:53.981Z,5.27
2018-08-17T02:38:22.190Z,5.63
2018-08-17T02:40:50.405Z,5.57
2018-08-17T02:43:18.645Z,6.57
2018-08-17T02:45:46.835Z,6.50
2018-08-17T02:48:15.029Z,5.10
2018-08-17T02:50:43.237Z,5.37
2018-08-17T02:53:11.569Z,5.73
2018-08-17T02:55:39.953Z,5.37
2018-08-17T02:58:08.560Z,6.67
2018-08-17T03:00:37.634Z,5.77
2018-08-17T03:03:06.121Z,8.00
2018-08-17T03:05:34.499Z,6.13
2018-08-17T03:08:02.724Z,7.40
2018-08-17T03:10:30.918Z,5.33
2018-08-17T03:12:59.121Z,5.93
2018-08-17T03:15:27.369Z,5.40
2018-08-17T03:17:55.685Z,7.97
2018-08-17T03:20:23.941Z,6.57
2018-08-17T03:22:52.154Z,14.47
2018-08-17T03:25:20.349Z,8.43
2018-08-17T03:27:48.553Z,6.47
2018-08-17T03:30:16.775Z,13.90
2018-08-17T03:32:44.979Z,6.23
2018-08-17T03:35:13.165Z,6.03
2018-08-17T03:37:41.399Z,8.53
2018-08-17T03:40:09.849Z,6.23
2018-08-17T03:42:38.204Z,7.27
2018-08-17T03:45:07.015Z,7.47
2018-08-17T03:47:35.531Z,6.83
2018-08-17T03:50:04.307Z,5.97
2018-08-17T03:52:32.510Z,6.57
2018-08-17T03:55:00.781Z,6.50
2018-08-17T03:57:28.978Z,6.20
2018-08-17T03:59:57.264Z,7.73
2018-08-17T04:02:25.546Z,6.20
2018-08-17T04:04:53.810Z,8.47
2018-08-17T04:07:22.008Z,6.37
2018-08-17T04:09:50.222Z,6.80
2018-08-17T04:12:18.440Z,9.07
2018-08-17T04:14:46.634Z,8.00
2018-08-17T04:17:14.846Z,6.97
2018-08-17T04:19:43.106Z,6.97
2018-08-17T04:22:11.368Z,8.60
2018-08-17T04:24:39.829Z,7.10
2018-08-17T04:27:08.133Z,7.10
2018-08-17T04:29:36.573Z,7.03
2018-08-17T04:32:04.900Z,7.13
2018-08-17T04:34:33.130Z,6.13
2018-08-17T04:37:01.334Z,6.07
2018-08-17T04:39:29.546Z,6.27
2018-08-17T04:41:57.806Z,8.20
2018-08-17T04:44:26.049Z,5.70
2018-08-17T04:46:54.299Z,5.40
2018-08-17T04:49:22.560Z,6.77
2018-08-17T04:51:50.710Z,4.53
2018-08-17T04:54:18.914Z,6.10
2018-08-17T04:56:47.112Z,5.30
2018-08-17T04:59:15.322Z,5.37
2018-08-17T05:01:43.520Z,5.87
2018-08-17T05:04:11.774Z,6.00
2018-08-17T05:06:40.066Z,6.70
2018-08-17T05:09:08.350Z,8.50
2018-08-17T05:11:36.670Z,5.87
2018-08-17T05:14:04.966Z,6.23
2018-08-17T05:16:33.269Z,5.50
2018-08-17T05:19:01.473Z,6.63
2018-08-17T05:21:29.896Z,5.60
2018-08-17T05:23:58.745Z,10.13
2018-08-17T05:26:27.133Z,5.50
2018-08-17T05:28:55.429Z,5.33
2018-08-17T05:31:23.622Z,6.17
2018-08-17T05:33:51.892Z,5.97
2018-08-17T05:36:20.118Z,7.50
2018-08-17T05:38:48.325Z,6.20
2018-08-17T05:41:16.526Z,6.73
2018-08-17T05:43:44.758Z,8.50
2018-08-17T05:46:13.000Z,5.60
2018-08-17T05:48:41.401Z,8.80
2018-08-17T05:51:09.766Z,7.43
2018-08-17T05:53:38.188Z,7.23
2018-08-17T05:56:07.932Z,6.30
2018-08-17T05:58:36.553Z,5.77
2018-08-17T06:01:05.559Z,8.13
2018-08-17T06:03:33.790Z,5.87
2018-08-17T06:06:02.018Z,5.20
2018-08-17T06:08:30.246Z,6.87
2018-08-17T06:10:58.504Z,5.50
2018-08-17T06:13:26.869Z,6.40
2018-08-17T06:15:55.154Z,7.77
2018-08-17T06:18:23.381Z,7.33
2018-08-17T06:20:51.622Z,5.53
2018-08-17T06:23:19.881Z,5.27
2018-08-17T06:25:48.085Z,4.17
2018-08-17T06:28:16.513Z,4.80
2018-08-17T06:30:44.995Z,5.03
2018-08-17T06:33:13.345Z,5.87
2018-08-17T06:35:41.727Z,5.53
2018-08-17T06:38:09.968Z,7.27
2018-08-17T06:40:38.547Z,8.63
2018-08-17T06:43:07.070Z,9.47
2018-08-17T06:45:35.465Z,6.13
2018-08-17T06:48:03.711Z,4.47
2018-08-17T06:50:31.950Z,4.40
2018-08-17T06:53:00.130Z,4.40
2018-08-17T06:55:28.650Z,6.07
2018-08-17T06:57:57.073Z,4.37
2018-08-17T07:00:25.321Z,4.53
2018-08-17T07:02:53.611Z,8.47
2018-08-17T07:05:21.810Z,7.87
2018-08-17T07:07:50.009Z,7.87
2018-08-17T07:10:18.222Z,5.43
2018-08-17T07:12:46.412Z,13.90
2018-08-17T07:15:14.621Z,4.50
2018-08-17T07:17:42.831Z,4.40
2018-08-17T07:20:12.460Z,9.37
2018-08-17T07:22:41.090Z,8.83
2018-08-17T07:25:10.150Z,6.60
2018-08-17T07:27:38.567Z,6.47
2018-08-17T07:30:08.085Z,5.60
2018-08-17T07:32:36.510Z,5.17
2018-08-17T07:35:06.111Z,5.67
2018-08-17T07:37:34.353Z,6.67
2018-08-17T07:40:02.669Z,4.50
2018-08-17T07:42:30.865Z,4.20
2018-08-17T07:44:59.081Z,4.37
2018-08-17T07:47:27.366Z,4.47
2018-08-17T07:49:55.686Z,4.37
2018-08-17T07:52:23.930Z,5.00
2018-08-17T07:54:52.137Z,4.03
2018-08-17T07:57:20.332Z,4.13
2018-08-17T07:59:48.682Z,3.63
2018-08-17T08:02:16.881Z,3.50
2018-08-17T08:04:45.086Z,4.67
2018-08-17T08:07:13.325Z,3.70
2018-08-17T08:09:41.565Z,3.90
2018-08-17T08:12:10.150Z,5.13
2018-08-17T08:14:38.613Z,3.73
2018-08-17T08:17:07.222Z,5.83
2018-08-17T08:19:35.613Z,3.23
2018-08-17T08:22:03.817Z,4.00
2018-08-17T08:24:37.091Z,4.10
2018-08-17T08:27:06.377Z,2.90
2018-08-17T08:29:34.681Z,2.97
2018-08-17T08:32:02.933Z,8.40
2018-08-17T08:34:31.130Z,3.07
2018-08-17T08:36:59.337Z,4.00
2018-08-17T08:39:27.594Z,4.57
2018-08-17T08:41:55.870Z,4.30
2018-08-17T08:44:24.090Z,2.83
2018-08-17T08:46:52.302Z,6.30
2018-08-17T08:49:20.507Z,3.67
2018-08-17T08:51:48.834Z,7.07
2018-08-17T08:54:17.034Z,3.17
2018-08-17T08:56:45.237Z,7.27
2018-08-17T08:59:13.497Z,2.73
2018-08-17T09:01:41.917Z,2.73
2018-08-17T09:04:10.403Z,3.03
2018-08-17T09:06:39.021Z,3.53
2018-08-17T09:09:08.582Z,2.60
2018-08-17T09:11:36.934Z,2.47
2018-08-17T09:14:05.756Z,2.63
2018-08-17T09:16:34.007Z,3.07
2018-08-17T09:19:02.809Z,7.13
2018-08-17T09:21:31.018Z,2.20
2018-08-17T09:23:59.410Z,6.00
2018-08-17T09:26:27.896Z,5.23
2018-08-17T09:28:56.084Z,3.00
2018-08-17T09:31:24.321Z,2.40
2018-08-17T09:33:52.529Z,3.23
2018-08-17T09:36:20.729Z,3.73
2018-08-17T09:38:48.933Z,2.67
2018-08-17T09:41:17.133Z,2.30
2018-08-17T09:43:45.557Z,2.47
2018-08-17T09:46:13.757Z,8.90
2018-08-17T09:48:42.138Z,1.80
2018-08-17T09:51:10.666Z,2.80
2018-08-17T09:53:39.078Z,7.53
2018-08-17T09:56:07.462Z,2.03
2018-08-17T09:58:36.105Z,3.03
2018-08-17T10:01:09.880Z,2.10
2018-08-17T10:03:47.627Z,2.43
2018-08-17T10:06:21.149Z,2.03
2018-08-17T10:08:54.891Z,3.60
2018-08-17T10:11:23.109Z,4.23
2018-08-17T10:13:51.308Z,2.83
2018-08-17T10:16:19.510Z,1.90
2018-08-17T10:18:47.921Z,2.90
2018-08-17T10:21:16.300Z,3.50
2018-08-17T10:23:44.450Z,1.60
2018-08-17T10:26:13.309Z,1.73
2018-08-17T10:28:41.678Z,3.33
2018-08-17T10:31:10.080Z,1.60
2018-08-17T10:33:38.416Z,2.23
2018-08-17T10:36:06.902Z,2.47
2018-08-17T10:38:35.425Z,2.07
2018-08-17T10:41:04.561Z,1.47
2018-08-17T10:43:32.953Z,1.70
2018-08-17T10:46:01.314Z,5.77
2018-08-17T10:48:30.026Z,5.03
2018-08-17T10:50:58.266Z,6.20
2018-08-17T10:53:30.789Z,1.10
2018-08-17T10:55:58.996Z,5.67
2018-08-17T10:58:27.338Z,1.97
2018-08-17T11:00:55.673Z,1.67
2018-08-17T11:03:23.958Z,3.63
2018-08-17T11:05:52.241Z,1.60
2018-08-17T11:08:20.457Z,2.33
2018-08-17T11:10:48.657Z,3.97
2018-08-17T11:13:16.881Z,2.47
2018-08-17T11:15:45.119Z,3.57
2018-08-17T11:18:13.376Z,3.20
2018-08-17T11:20:41.762Z,1.60
2018-08-17T11:23:10.216Z,3.00
2018-08-17T11:25:38.682Z,3.20
2018-08-17T11:28:07.102Z,2.43
2018-08-17T11:30:35.434Z,2.00
2018-08-17T11:33:04.478Z,3.93
2018-08-17T11:35:32.666Z,2.73
2018-08-17T11:38:00.965Z,2.23
2018-08-17T11:40:29.565Z,1.50
2018-08-17T11:42:58.038Z,2.30
2018-08-17T11:45:27.223Z,1.90
2018-08-17T11:47:56.411Z,3.37
2018-08-17T11:50:25.821Z,9.30
2018-08-17T11:52:58.863Z,1.77
2018-08-17T11:55:28.984Z,2.33
2018-08-17T11:57:57.366Z,1.80
2018-08-17T12:00:25.885Z,1.43
2018-08-17T12:02:54.086Z,5.60
2018-08-17T12:05:22.294Z,1.63
2018-08-17T12:07:50.490Z,1.70
2018-08-17T12:10:18.696Z,1.67
2018-08-17T12:12:47.118Z,1.80
2018-08-17T12:15:15.837Z,2.67
2018-08-17T12:17:44.206Z,4.13
2018-08-17T12:20:12.687Z,3.87
2018-08-17T12:22:41.874Z,8.63
2018-08-17T12:25:14.074Z,2.03
2018-08-17T12:27:47.008Z,4.73
2018-08-17T12:30:15.289Z,2.30
2018-08-17T12:32:43.772Z,1.70
2018-08-17T12:35:12.275Z,2.80
2018-08-17T12:37:40.675Z,2.07
2018-08-17T12:40:10.169Z,1.80
2018-08-17T12:42:39.463Z,2.43
2018-08-17T12:45:13.325Z,1.90
2018-08-17T12:47:41.682Z,1.80
2018-08-17T12:50:10.261Z,3.63
2018-08-17T12:52:39.006Z,1.50
2018-08-17T12:55:07.726Z,2.43
2018-08-17T12:57:41.581Z,2.47
2018-08-17T13:00:11.049Z,1.73
2018-08-17T13:02:45.026Z,2.50
2018-08-17T13:05:13.373Z,4.80
2018-08-17T13:07:41.794Z,2.07
2018-08-17T13:10:10.428Z,1.63
2018-08-17T13:12:39.427Z,3.20
2018-08-17T13:15:07.989Z,2.30
2018-08-17T13:17:42.057Z,2.37
2018-08-17T13:20:10.667Z,1.40
2018-08-17T13:22:39.634Z,2.80
2018-08-17T13:25:08.783Z,1.83
2018-08-17T13:27:38.661Z,3.23
2018-08-17T13:30:10.311Z,2.30
2018-08-17T13:32:39.657Z,2.90
2018-08-17T13:35:08.581Z,2.57
2018-08-17T13:37:37.773Z,1.77
2018-08-17T13:40:07.817Z,3.37
2018-08-17T13:42:37.850Z,1.20
2018-08-17T13:45:08.286Z,1.60
2018-08-17T13:47:37.050Z,1.43
2018-08-17T13:50:06.242Z,2.90
2018-08-17T13:52:34.581Z,1.33
2018-08-17T13:55:03.055Z,1.60
2018-08-17T13:57:31.342Z,1.47
2018-08-17T13:59:59.750Z,1.47
2018-08-17T14:02:28.234Z,2.37
2018-08-17T14:04:56.541Z,1.70
2018-08-17T14:07:24.839Z,1.87
2018-08-17T14:09:53.053Z,1.73
2018-08-17T14:12:21.264Z,3.33
2018-08-17T14:14:49.484Z,2.70
2018-08-17T14:17:17.716Z,1.80
2018-08-17T14:19:45.982Z,2.37
2018-08-17T14:22:14.751Z,2.33
2018-08-17T14:24:43.934Z,1.30
2018-08-17T14:27:12.681Z,1.63
2018-08-17T14:29:42.761Z,4.07
2018-08-17T14:32:11.994Z,3.70
2018-08-17T14:34:40.724Z,2.87
2018-08-17T14:37:10.146Z,6.37
2018-08-17T14:39:39.520Z,1.50
2018-08-17T14:42:08.814Z,5.10
2018-08-17T14:44:38.297Z,1.60
2018-08-17T14:47:08.756Z,4.10
2018-08-17T14:49:38.505Z,3.10
2018-08-17T14:52:07.637Z,1.73
2018-08-17T14:54:38.271Z,6.03
2018-08-17T14:57:08.539Z,3.17
2018-08-17T14:59:38.258Z,2.07
2018-08-17T15:02:07.648Z,1.70
2018-08-17T15:04:40.615Z,1.57
2018-08-17T15:07:09.882Z,2.10
2018-08-17T15:09:38.657Z,1.93
2018-08-17T15:12:08.149Z,3.60
2018-08-17T15:17:48.966Z,1.80
2018-08-17T15:20:17.172Z,1.40
2018-08-17T15:22:45.671Z,1.93
2018-08-17T15:25:14.238Z,1.80
2018-08-17T15:27:42.796Z,4.40
2018-08-17T15:30:12.257Z,1.77
2018-08-17T15:32:42.091Z,1.77
2018-08-17T15:35:11.610Z,2.60
2018-08-17T15:37:40.965Z,2.43
2018-08-17T15:40:12.572Z,1.60
2018-08-17T15:42:42.106Z,2.23
2018-08-17T15:45:11.515Z,1.60
2018-08-17T15:47:40.459Z,3.23
2018-08-17T15:50:17.747Z,1.50
2018-08-17T15:52:45.999Z,1.73
2018-08-17T15:55:14.862Z,4.20
2018-08-17T15:57:44.085Z,2.23
2018-08-17T16:00:15.978Z,3.80
2018-08-17T16:02:44.553Z,2.40
2018-08-17T16:05:13.195Z,2.70
2018-08-17T16:07:43.051Z,1.97
2018-08-17T16:10:14.114Z,1.40
2018-08-17T16:12:43.012Z,1.73
2018-08-17T16:15:12.699Z,3.93
2018-08-17T16:17:41.670Z,1.63
2018-08-17T16:20:12.759Z,1.70
2018-08-17T16:22:42.813Z,3.10
2018-08-17T16:25:13.760Z,2.00
2018-08-17T16:27:43.342Z,1.63
2018-08-17T16:30:14.163Z,1.80
2018-08-17T16:32:46.826Z,4.97
2018-08-17T16:35:15.300Z,1.50
2018-08-17T16:37:47.348Z,1.63
2018-08-17T16:40:16.269Z,4.23
2018-08-17T16:42:45.584Z,2.97
2018-08-17T16:45:14.247Z,1.47
2018-08-17T16:47:43.000Z,3.73
2018-08-17T16:50:12.601Z,1.50
2018-08-17T16:52:41.515Z,1.87
2018-08-17T16:55:10.967Z,1.67
2018-08-17T16:57:40.364Z,1.90
2018-08-17T17:00:11.265Z,1.33
2018-08-17T17:02:40.990Z,1.50
2018-08-17T17:05:10.439Z,1.40
2018-08-17T17:07:39.988Z,9.13
2018-08-17T17:10:10.109Z,11.17
2018-08-17T17:12:40.540Z,24.23
2018-08-17T17:15:15.886Z,24.23
2018-08-17T17:18:07.667Z,25.43
2018-08-17T17:20:38.473Z,16.90
2018-08-17T17:23:10.406Z,9.77
2018-08-17T17:25:40.546Z,6.87
2018-08-17T17:28:10.374Z,7.13
2018-08-17T17:30:47.119Z,7.93
2018-08-17T17:33:15.470Z,4.90
2018-08-17T17:35:44.469Z,2.50
2018-08-17T17:38:13.167Z,4.27
2018-08-17T17:40:42.661Z,2.57
2018-08-17T17:43:11.961Z,4.37
2018-08-17T17:45:41.451Z,2.30
2018-08-17T17:48:10.578Z,3.70
2018-08-17T17:50:40.502Z,5.93
2018-08-17T17:53:10.575Z,10.80
2018-08-17T17:55:46.129Z,7.27
2018-08-17T17:58:15.400Z,11.47
2018-08-17T18:00:55.957Z,7.30
2018-08-17T18:03:24.671Z,4.33
2018-08-17T18:05:53.163Z,5.87
2018-08-17T18:08:21.414Z,2.20
2018-08-17T18:10:49.896Z,4.80
2018-08-17T18:13:18.140Z,6.00
2018-08-17T18:15:46.379Z,2.77
2018-08-17T18:18:15.046Z,1.77
2018-08-17T18:20:43.683Z,3.20
2018-08-17T18:23:17.902Z,2.23
2018-08-17T18:25:46.436Z,3.07
2018-08-17T18:28:20.240Z,4.90
2018-08-17T18:30:53.286Z,1.80
2018-08-17T18:33:22.982Z,2.03
2018-08-17T18:35:52.919Z,2.10
2018-08-17T18:38:23.327Z,2.40
2018-08-17T18:40:51.905Z,2.93
2018-08-17T18:43:21.286Z,2.67
2018-08-17T18:45:50.303Z,2.27
2018-08-17T18:48:18.976Z,1.97
2018-08-17T18:50:51.809Z,2.70
2018-08-17T18:53:22.243Z,2.90
2018-08-17T18:55:53.984Z,2.80
2018-08-17T18:58:23.024Z,4.70
2018-08-17T19:00:52.459Z,2.10
2018-08-17T19:03:22.376Z,4.57
2018-08-17T19:05:50.667Z,2.87
2018-08-17T19:08:22.440Z,2.00
2018-08-17T19:10:50.669Z,2.17
2018-08-17T19:13:18.987Z,2.27
2018-08-17T19:15:51.448Z,2.00
2018-08-17T19:18:19.823Z,2.20
2018-08-17T19:20:48.755Z,2.13
2018-08-17T19:23:17.325Z,4.50
2018-08-17T19:25:45.697Z,3.10
2018-08-17T19:28:14.839Z,2.23
2018-08-17T19:30:43.466Z,2.23
2018-08-17T19:33:15.172Z,2.77
2018-08-17T19:35:45.332Z,2.93
2018-08-17T19:38:14.616Z,2.53
2018-08-17T19:40:44.095Z,2.50
2018-08-17T19:43:14.258Z,2.53
2018-08-17T19:45:43.892Z,4.83
2018-08-17T19:48:14.049Z,2.37
2018-08-17T19:50:43.023Z,2.57
2018-08-17T19:53:12.418Z,5.40
2018-08-17T19:55:43.261Z,5.10
2018-08-17T19:58:12.294Z,3.47
2018-08-17T20:00:41.459Z,3.73
2018-08-17T20:03:11.766Z,5.40
2018-08-17T20:05:41.512Z,3.43
2018-08-17T20:08:10.851Z,5.53
2018-08-17T20:10:44.557Z,4.80
2018-08-17T20:13:13.352Z,4.30
2018-08-17T20:15:42.167Z,4.83
2018-08-17T20:18:11.235Z,8.57
2018-08-17T20:20:42.667Z,4.90
2018-08-17T20:23:12.076Z,4.97
2018-08-17T20:25:42.275Z,3.27
2018-08-17T20:28:11.788Z,2.50
2018-08-17T20:30:41.619Z,2.50
2018-08-17T20:33:17.055Z,5.67
2018-08-17T20:35:49.912Z,38.90
2018-08-17T20:38:18.192Z,21.87
2018-08-17T20:40:46.595Z,30.90
2018-08-17T20:43:15.280Z,7.70
2018-08-17T20:45:44.879Z,6.13
2018-08-17T20:48:13.456Z,3.20
2018-08-17T20:50:42.534Z,14.37
2018-08-17T20:53:11.741Z,12.87
2018-08-17T20:55:41.065Z,4.80
2018-08-17T20:58:11.455Z,10.33
2018-08-17T21:00:41.996Z,14.60
2018-08-17T21:03:11.781Z,5.63
2018-08-17T21:05:41.403Z,4.43
2018-08-17T21:08:11.865Z,3.73
2018-08-17T21:10:40.991Z,3.40
2018-08-17T21:13:10.647Z,2.90
2018-08-17T21:15:40.620Z,4.30
2018-08-17T21:18:10.041Z,3.10
2018-08-17T21:20:40.286Z,3.80
2018-08-17T21:23:10.671Z,4.00
2018-08-17T21:25:40.332Z,4.10
2018-08-17T21:28:10.855Z,3.80
2018-08-17T21:30:41.160Z,19.13
2018-08-17T21:33:11.392Z,15.27
2018-08-17T21:35:41.657Z,11.43
2018-08-17T21:38:12.179Z,3.50
2018-08-17T21:40:41.559Z,4.73
2018-08-17T21:43:11.342Z,4.83
2018-08-17T21:45:40.523Z,5.50
2018-08-17T21:48:15.330Z,4.17
2018-08-17T21:50:44.196Z,3.90
2018-08-17T21:53:13.424Z,4.80
2018-08-17T21:55:42.669Z,4.63
2018-08-17T21:58:12.431Z,3.40
2018-08-17T22:00:41.579Z,4.07
2018-08-17T22:03:23.899Z,5.93
2018-08-17T22:05:52.255Z,10.03
2018-08-17T22:08:20.463Z,3.50
2018-08-17T22:10:48.748Z,3.53
2018-08-17T22:13:29.534Z,3.50
2018-08-17T22:15:58.331Z,3.80
2018-08-17T22:18:26.986Z,3.50
2018-08-17T22:20:55.191Z,4.33
2018-08-17T22:23:23.714Z,3.00
2018-08-17T22:25:51.944Z,3.57
2018-08-17T22:28:20.194Z,4.07
2018-08-17T22:30:48.454Z,5.00
2018-08-17T22:33:16.672Z,3.63
2018-08-17T22:35:45.282Z,4.43
2018-08-17T22:38:13.863Z,4.10
2018-08-17T22:40:42.538Z,4.30
2018-08-17T22:43:12.243Z,4.03
2018-08-17T22:45:41.663Z,3.90
2018-08-17T22:48:10.960Z,4.07
2018-08-17T22:50:41.504Z,3.97
2018-08-17T22:53:10.720Z,5.90
2018-08-17T22:55:41.527Z,3.60
2018-08-17T22:58:18.347Z,4.10
2018-08-17T23:00:46.882Z,3.13
2018-08-17T23:03:15.579Z,4.93
2018-08-17T23:05:44.330Z,4.23
2018-08-17T23:08:12.964Z,4.90
2018-08-17T23:10:41.656Z,5.00
2018-08-17T23:13:11.833Z,4.47
2018-08-17T23:15:41.819Z,5.83
2018-08-17T23:18:11.857Z,4.50
2018-08-17T23:20:43.324Z,6.33
2018-08-17T23:23:13.307Z,4.73
2018-08-17T23:25:42.630Z,4.50
2018-08-17T23:28:11.908Z,4.77
2018-08-17T23:30:41.484Z,4.43
2018-08-17T23:33:11.336Z,6.97
2018-08-17T23:35:41.313Z,4.97
2018-08-17T23:38:11.227Z,4.90
2018-08-17T23:40:41.475Z,6.00
2018-08-17T23:43:11.352Z,6.43
2018-08-17T23:45:40.904Z,5.00
2018-08-17T23:48:10.315Z,5.97
2018-08-17T23:50:40.495Z,4.70
2018-08-17T23:53:10.545Z,6.00
2018-08-17T23:55:39.743Z,7.53
2018-08-17T23:58:09.082Z,8.97
